Time;durP1;ratioP1;P1;durP2;ratioP2;P2;SDS_P1;SDS_P2;PMS_P1;PMS_P2;Temp;Humidity;BMP_temperature;BMP_pressure;BME280_temperature;BME280_humidity;BME280_pressure;Samples;Min_cycle;Max_cycle;Signal;HPM_P1;HPM_P2
2023/07/01 00:04:18;;;;;;;13.32;6.75;;;;;;;16.46;100.00;99645.69;10457839;28;20036;-66
2023/07/01 00:09:19;;;;;;;16.13;7.60;;;;;;;16.49;100.00;99642.56;10458872;28;20534;-65
2023/07/01 00:14:19;;;;;;;16.63;7.13;;;;;;;16.50;100.00;99638.84;10457465;28;20076;-65
2023/07/01 00:19:20;;;;;;;12.07;6.53;;;;;;;16.43;100.00;99638.09;10457364;28;20045;-66
2023/07/01 00:24:21;;;;;;;16.40;7.15;;;;;;;16.05;100.00;99576.66;10457743;28;20128;-66
2023/07/01 00:29:22;;;;;;;11.85;6.28;;;;;;;16.37;100.00;99647.03;10457355;28;20135;-65
2023/07/01 00:34:22;;;;;;;15.40;7.32;;;;;;;15.80;100.00;99555.31;10457251;28;20079;-65
2023/07/01 00:39:23;;;;;;;13.30;7.07;;;;;;;16.06;100.00;99591.69;10457175;28;20396;-65
2023/07/01 00:44:24;;;;;;;7.97;6.10;;;;;;;16.41;100.00;99642.88;10456863;28;20094;-66
2023/07/01 00:49:25;;;;;;;12.50;6.53;;;;;;;16.08;100.00;99594.97;10456692;28;20049;-66
2023/07/01 00:54:26;;;;;;;9.27;5.75;;;;;;;16.36;100.00;99648.91;10438566;28;20520;-65
2023/07/01 00:59:27;;;;;;;19.10;6.32;;;;;;;16.20;100.00;99652.16;10456395;28;20049;-66
2023/07/01 01:04:44;;;;;;;22.55;6.45;;;;;;;15.75;100.00;99596.13;10455871;28;20131;-65
2023/07/01 01:10:00;;;;;;;28.00;6.55;;;;;;;16.11;100.00;99658.84;10456764;28;20045;-66
2023/07/01 01:15:02;;;;;;;15.95;6.30;;;;;;;16.04;100.00;99642.03;10455530;28;20135;-66
2023/07/01 01:20:16;;;;;;;14.95;6.40;;;;;;;15.56;100.00;99573.00;10456411;28;20078;-68
2023/07/01 01:25:24;;;;;;;17.92;5.82;;;;;;;15.90;100.00;99628.72;10455567;28;20142;-66
2023/07/01 01:30:30;;;;;;;8.38;5.85;;;;;;;15.96;100.00;99646.59;10455845;28;20072;-65
2023/07/01 01:35:31;;;;;;;14.98;6.50;;;;;;;15.63;100.00;99597.84;10454468;28;20041;-65
2023/07/01 01:40:51;;;;;;;27.67;7.75;;;;;;;16.04;100.00;99663.44;10454357;28;20514;-66
2023/07/01 01:45:54;;;;;;;18.40;6.55;;;;;;;15.51;100.00;99579.00;10454857;28;20045;-65
2023/07/01 01:50:57;;;;;;;18.60;8.02;;;;;;;15.66;100.00;99594.72;10454582;28;20040;-66
2023/07/01 01:55:59;;;;;;;14.23;6.70;;;;;;;16.10;100.00;99655.34;10454528;28;20044;-65
2023/07/01 02:01:00;;;;;;;13.07;6.05;;;;;;;16.12;100.00;99645.25;10454150;28;20049;-66
2023/07/01 02:06:01;;;;;;;24.25;6.22;;;;;;;16.19;100.00;99642.47;10436536;28;20493;-65
2023/07/01 02:11:02;;;;;;;22.55;6.50;;;;;;;16.30;100.00;99636.38;10454079;28;20049;-65
2023/07/01 02:16:04;;;;;;;13.82;6.47;;;;;;;16.11;100.00;99581.94;10454211;28;20065;-66
2023/07/01 02:21:06;;;;;;;9.63;4.63;;;;;;;16.92;100.00;99654.25;10443749;28;20037;-70
2023/07/01 02:26:08;;;;;;;13.82;5.68;;;;;;;17.21;100.00;99642.72;10462208;28;20047;-66
2023/07/01 02:31:08;;;;;;;12.70;5.03;;;;;;;17.97;100.00;99635.72;10460553;28;20053;-66
2023/07/01 02:36:09;;;;;;;12.32;5.57;;;;;;;18.75;100.00;99597.88;10462031;28;20412;-65
2023/07/01 02:41:10;;;;;;;7.40;4.20;;;;;;;20.15;100.00;99633.91;10461146;28;20565;-66
2023/07/01 02:46:11;;;;;;;7.32;4.20;;;;;;;21.15;100.00;99620.31;10461389;28;20037;-66
2023/07/01 02:51:11;;;;;;;9.18;3.70;;;;;;;22.23;93.88;99630.09;10460609;28;20060;-66
2023/07/01 02:56:12;;;;;;;9.57;3.33;;;;;;;23.20;88.64;99622.34;10461273;28;20037;-66
2023/07/01 03:01:13;;;;;;;9.20;3.58;;;;;;;24.00;82.72;99640.81;10460608;28;20076;-66
2023/07/01 03:06:14;;;;;;;7.63;3.30;;;;;;;24.47;78.86;99639.63;10461628;28;20499;-67
2023/07/01 03:11:15;;;;;;;9.85;3.03;;;;;;;24.44;76.27;99577.72;10461136;28;20055;-67
2023/07/01 03:16:16;;;;;;;6.93;3.28;;;;;;;24.75;73.89;99641.69;10459864;28;20037;-67
2023/07/01 03:21:17;;;;;;;8.32;2.80;;;;;;;24.47;74.13;99654.03;10460414;28;20052;-66
2023/07/01 03:26:18;;;;;;;4.90;2.50;;;;;;;24.18;73.33;99661.94;10460743;28;20044;-66
2023/07/01 03:31:18;;;;;;;6.30;2.70;;;;;;;24.13;72.50;99646.47;10459851;28;20049;-67
2023/07/01 03:36:19;;;;;;;5.13;2.90;;;;;;;24.83;71.36;99643.81;10458992;28;20052;-66
2023/07/01 03:41:20;;;;;;;5.28;2.45;;;;;;;25.72;68.68;99649.22;10458867;28;20099;-67
2023/07/01 03:46:21;;;;;;;5.43;2.45;;;;;;;26.74;66.32;99646.56;10459090;28;20087;-67
2023/07/01 03:51:21;;;;;;;8.75;2.30;;;;;;;27.33;62.92;99607.03;10459164;28;20041;-67
2023/07/01 03:56:22;;;;;;;4.38;2.15;;;;;;;27.86;60.68;99584.88;10458851;28;20386;-67
2023/07/01 04:01:23;;;;;;;7.15;2.50;;;;;;;28.92;59.00;99659.53;10458816;28;20124;-67
2023/07/01 04:06:24;;;;;;;6.35;2.38;;;;;;;29.16;57.74;99642.09;10458432;28;20094;-67
2023/07/01 04:11:25;;;;;;;6.10;2.60;;;;;;;29.38;55.97;99625.72;10458091;28;20572;-67
2023/07/01 04:16:26;;;;;;;4.55;2.63;;;;;;;29.79;55.37;99638.41;10456647;28;20072;-67
2023/07/01 04:21:26;;;;;;;6.07;2.33;;;;;;;30.15;54.43;99640.19;10457324;28;20094;-67
2023/07/01 04:26:27;;;;;;;5.28;2.00;;;;;;;29.60;52.81;99592.06;10457688;28;20045;-67
2023/07/01 04:31:29;;;;;;;7.63;1.85;;;;;;;29.52;52.03;99581.84;10457194;28;20099;-67
2023/07/01 04:36:30;;;;;;;7.83;2.20;;;;;;;29.94;52.61;99646.22;10457240;28;20048;-68
2023/07/01 04:41:32;;;;;;;8.48;2.28;;;;;;;29.61;52.64;99574.50;10456508;28;20076;-67
2023/07/01 04:46:33;;;;;;;3.17;1.88;;;;;;;29.97;52.03;99634.63;10457445;28;20044;-67
2023/07/01 04:51:35;;;;;;;7.60;2.38;;;;;;;29.83;52.14;99625.72;10456905;28;20045;-70
2023/07/01 04:56:36;;;;;;;3.65;2.17;;;;;;;29.28;49.55;99568.50;10456166;28;20039;-68
2023/07/01 05:01:37;;;;;;;7.05;2.20;;;;;;;29.13;50.60;99630.66;10456275;28;20041;-68
2023/07/01 05:06:38;;;;;;;4.00;2.10;;;;;;;28.71;50.01;99641.97;10437578;28;20037;-68
2023/07/01 05:11:38;;;;;;;2.35;1.85;;;;;;;28.09;49.91;99624.06;10455391;28;20044;-69
2023/07/01 05:16:39;;;;;;;5.35;1.90;;;;;;;27.27;50.12;99573.59;10455366;28;20524;-68
2023/07/01 05:21:53;;;;;;;4.03;2.03;;;;;;;27.12;51.99;99619.34;10455006;28;20060;-67
2023/07/01 05:26:54;;;;;;;3.47;1.85;;;;;;;26.67;53.44;99618.88;10455016;28;20397;-68
2023/07/01 05:31:55;;;;;;;5.40;1.95;;;;;;;26.37;53.39;99616.22;10455680;28;20068;-68
2023/07/01 05:36:56;;;;;;;6.25;2.10;;;;;;;26.27;54.01;99604.63;10454759;28;20094;-69
2023/07/01 05:41:57;;;;;;;5.82;2.00;;;;;;;26.37;55.41;99599.06;10454409;28;20049;-70
2023/07/01 05:46:58;;;;;;;7.55;2.35;;;;;;;26.29;54.18;99588.81;10454995;28;20041;-69
2023/07/01 05:51:59;;;;;;;4.28;2.20;;;;;;;26.27;53.63;99612.81;10453090;28;20051;-68
2023/07/01 05:57:00;;;;;;;3.67;2.17;;;;;;;26.38;52.89;99609.69;10454589;28;20063;-68
2023/07/01 06:02:00;;;;;;;4.30;2.13;;;;;;;26.44;52.96;99601.44;10454606;28;20037;-69
2023/07/01 06:07:01;;;;;;;2.78;1.90;;;;;;;26.61;51.36;99612.69;10454250;28;20489;-67
2023/07/01 06:12:02;;;;;;;3.72;2.10;;;;;;;26.40;51.59;99604.72;10453548;28;20048;-69
2023/07/01 06:17:03;;;;;;;3.83;2.30;;;;;;;26.69;52.42;99612.03;10452608;28;20041;-68
2023/07/01 06:22:04;;;;;;;3.58;2.00;;;;;;;26.82;52.01;99570.44;10450593;28;20504;-69
2023/07/01 06:27:05;;;;;;;3.58;1.90;;;;;;;26.83;51.09;99612.94;10454483;28;20041;-68
2023/07/01 06:32:07;;;;;;;3.80;2.33;;;;;;;26.59;51.63;99601.25;10452513;28;20056;-69
2023/07/01 06:37:08;;;;;;;6.88;2.53;;;;;;;27.13;51.79;99599.94;10453431;28;20484;-69
2023/07/01 06:42:09;;;;;;;3.25;2.10;;;;;;;27.18;50.80;99589.00;10451305;28;20044;-68
2023/07/01 06:47:10;;;;;;;4.10;2.42;;;;;;;27.49;49.62;99575.69;10453321;28;20053;-70
2023/07/01 06:52:11;;;;;;;5.43;2.50;;;;;;;27.65;48.60;99591.81;10449009;28;20032;-70
2023/07/01 06:57:11;;;;;;;6.38;2.25;;;;;;;27.31;48.66;99582.81;10453305;28;20133;-67
2023/07/01 07:02:12;;;;;;;4.85;3.08;;;;;;;26.74;49.08;99581.97;10452492;28;20090;-68
2023/07/01 07:07:13;;;;;;;3.67;2.50;;;;;;;25.69;50.19;99523.84;10461114;28;20045;-69
2023/07/01 07:12:14;;;;;;;7.18;2.78;;;;;;;26.13;50.88;99590.91;10441940;28;20053;-67
2023/07/01 07:17:15;;;;;;;3.13;2.20;;;;;;;25.83;50.56;99584.69;10461039;28;20033;-70
2023/07/01 07:22:16;;;;;;;3.50;2.60;;;;;;;26.04;50.43;99589.91;10459363;28;20531;-69
2023/07/01 07:27:16;;;;;;;5.45;2.75;;;;;;;26.21;48.50;99584.81;10460248;28;20041;-69
2023/07/01 07:32:17;;;;;;;7.88;3.45;;;;;;;26.62;47.96;99617.00;10459973;28;20115;-68
2023/07/01 07:37:18;;;;;;;4.22;2.80;;;;;;;26.94;47.34;99601.88;10458911;28;20136;-68
2023/07/01 07:42:19;;;;;;;4.72;2.78;;;;;;;27.29;47.51;99592.41;10459438;28;20047;-67
2023/07/01 07:47:21;;;;;;;5.15;2.90;;;;;;;27.59;46.43;99573.91;10459328;28;20079;-71
2023/07/01 07:52:21;;;;;;;5.28;2.75;;;;;;;27.95;47.52;99582.28;10458947;28;20403;-68
2023/07/01 07:57:22;;;;;;;3.75;2.70;;;;;;;28.02;46.34;99577.22;10458069;28;20065;-67
2023/07/01 08:02:23;;;;;;;4.82;2.50;;;;;;;28.09;46.35;99571.34;10459266;28;20056;-69
2023/07/01 08:07:24;;;;;;;21.73;3.00;;;;;;;27.41;46.80;99507.38;10457801;28;20505;-68
2023/07/01 08:12:24;;;;;;;4.97;2.70;;;;;;;28.09;46.41;99555.78;10440626;28;20076;-67
2023/07/01 08:17:25;;;;;;;4.15;2.58;;;;;;;28.30;45.43;99539.81;10457055;28;20109;-69
2023/07/01 08:22:26;;;;;;;5.60;2.78;;;;;;;28.67;45.17;99537.94;10458346;28;20113;-70
2023/07/01 08:27:27;;;;;;;5.28;2.65;;;;;;;28.26;45.16;99537.97;10455613;28;20553;-70
2023/07/01 08:32:27;;;;;;;5.50;2.85;;;;;;;27.72;46.06;99532.16;10454809;28;20087;-70
2023/07/01 08:37:29;;;;;;;7.65;3.30;;;;;;;27.84;45.17;99537.97;10457216;28;20029;-70
2023/07/01 08:42:37;;;;;;;5.73;2.90;;;;;;;28.20;43.70;99521.69;10454025;28;20041;-69
2023/07/01 08:47:39;;;;;;;5.88;3.10;;;;;;;28.25;43.22;99448.97;10454791;28;20496;-66
2023/07/01 08:52:43;;;;;;;9.13;3.63;;;;;;;28.89;43.09;99496.13;10456220;28;20041;-67
2023/07/01 08:57:44;;;;;;;3.63;2.70;;;;;;;28.92;42.25;99492.78;10456728;28;20040;-70
2023/07/01 09:02:45;;;;;;;8.27;2.90;;;;;;;29.19;42.43;99488.31;10456147;28;20505;-69
2023/07/01 09:07:46;;;;;;;7.10;2.95;;;;;;;28.49;42.27;99482.31;10455831;28;20039;-69
2023/07/01 09:12:47;;;;;;;8.13;2.70;;;;;;;28.62;42.49;99465.06;10455246;28;20049;-69
2023/07/01 09:17:48;;;;;;;12.77;3.00;;;;;;;28.77;40.84;99417.41;10455409;28;20037;-71
2023/07/01 09:22:58;;;;;;;6.25;2.85;;;;;;;29.20;40.29;99463.41;10455498;28;20047;-70
2023/07/01 09:27:59;;;;;;;5.80;3.10;;;;;;;29.27;41.90;99473.91;10454815;28;20124;-68
2023/07/01 09:33:10;;;;;;;4.55;2.75;;;;;;;29.27;42.14;99479.38;10454974;28;20667;-68
2023/07/01 09:38:11;;;;;;;6.90;2.90;;;;;;;29.31;41.35;99463.94;10454553;28;20091;-71
2023/07/01 09:43:12;;;;;;;5.13;2.90;;;;;;;29.23;41.45;99470.97;10454341;28;20037;-69
2023/07/01 09:48:16;;;;;;;5.53;2.95;;;;;;;28.71;41.54;99398.72;10455182;28;20063;-69
2023/07/01 09:53:33;;;;;;;3.92;2.80;;;;;;;29.35;41.83;99459.47;10454277;28;20143;-68
2023/07/01 09:58:34;;;;;;;4.65;2.90;;;;;;;28.83;41.53;99434.50;10453744;28;20040;-68
2023/07/01 10:03:35;;;;;;;9.05;3.10;;;;;;;28.81;42.56;99455.91;10452838;28;20045;-68
2023/07/01 10:08:37;;;;;;;5.13;2.90;;;;;;;28.50;41.70;99391.03;10453786;28;20037;-68
2023/07/01 10:13:46;;;;;;;6.53;2.97;;;;;;;28.80;43.55;99449.59;10453451;28;20040;-71
2023/07/01 10:18:47;;;;;;;6.80;2.90;;;;;;;28.83;42.52;99423.56;10436365;28;20543;-69
2023/07/01 10:23:49;;;;;;;5.88;2.80;;;;;;;28.61;42.54;99436.13;10454482;28;20071;-68
2023/07/01 10:28:50;;;;;;;6.13;3.38;;;;;;;28.03;43.29;99397.84;10454263;28;20049;-69
2023/07/01 10:33:51;;;;;;;6.35;2.90;;;;;;;28.18;43.67;99460.28;10452782;28;20049;-69
2023/07/01 10:38:52;;;;;;;5.53;2.92;;;;;;;27.51;43.54;99392.63;10456726;28;20048;-70
2023/07/01 10:44:23;;;;;;;8.65;3.10;;;;;;;27.48;44.63;99436.88;10459945;28;20041;-70
2023/07/01 10:49:25;;;;;;;7.97;2.80;;;;;;;27.38;44.31;99462.44;10460137;28;20076;-69
2023/07/01 10:54:37;;;;;;;17.42;3.10;;;;;;;27.08;46.89;99450.13;10461354;28;20139;-69
2023/07/01 10:59:38;;;;;;;4.65;2.97;;;;;;;26.99;48.79;99473.72;10460440;28;20489;-69
2023/07/01 11:04:54;;;;;;;11.77;3.17;;;;;;;26.68;50.66;99478.81;10460148;28;20037;-70
2023/07/01 11:09:55;;;;;;;6.30;3.00;;;;;;;26.34;49.83;99455.34;10460253;28;20543;-69
2023/07/01 11:14:56;;;;;;;8.55;3.40;;;;;;;26.65;51.10;99461.16;10459951;28;20048;-69
2023/07/01 11:19:57;;;;;;;2.92;2.58;;;;;;;26.90;48.94;99450.97;10460013;28;20036;-70
2023/07/01 11:25:03;;;;;;;4.82;2.88;;;;;;;27.79;48.09;99458.13;10458666;28;20528;-69
2023/07/01 11:30:05;;;;;;;3.25;2.13;;;;;;;28.51;45.60;99458.25;10460623;28;20123;-71
2023/07/01 11:35:06;;;;;;;4.72;2.30;;;;;;;28.83;44.00;99445.44;10458429;28;20415;-73
2023/07/01 11:40:08;;;;;;;11.27;3.00;;;;;;;28.88;44.56;99439.84;10441278;28;20055;-69
2023/07/01 11:45:09;;;;;;;4.22;2.25;;;;;;;29.20;44.01;99473.53;10441815;28;20113;-70
2023/07/01 11:50:10;;;;;;;7.32;2.60;;;;;;;29.35;44.41;99457.53;10459008;28;20041;-70
2023/07/01 11:55:11;;;;;;;4.18;2.50;;;;;;;28.80;44.11;99416.00;10458412;28;20128;-69
2023/07/01 12:00:27;;;;;;;5.53;3.13;;;;;;;27.98;43.91;99347.72;10441470;28;20135;-69
2023/07/01 12:05:31;;;;;;;4.60;2.83;;;;;;;28.46;44.63;99473.94;10458445;28;20037;-69
2023/07/01 12:10:35;;;;;;;6.45;2.70;;;;;;;28.48;44.46;99474.41;10457298;28;20040;-69
2023/07/01 12:15:53;;;;;;;6.28;2.55;;;;;;;28.72;42.23;99476.88;10457755;28;20052;-71
2023/07/01 12:20:54;;;;;;;4.20;2.53;;;;;;;28.63;41.82;99474.09;10440455;28;20133;-71
2023/07/01 12:25:55;;;;;;;4.68;2.70;;;;;;;28.95;41.38;99473.03;10457124;28;20086;-71
2023/07/01 12:30:56;;;;;;;4.53;2.42;;;;;;;29.01;41.69;99452.63;10457462;28;20102;-70
2023/07/01 12:35:57;;;;;;;5.45;2.70;;;;;;;28.87;41.46;99457.38;10456967;28;20489;-70
2023/07/01 12:40:58;;;;;;;4.80;2.72;;;;;;;28.72;41.42;99403.91;10457264;28;20033;-71
2023/07/01 12:45:59;;;;;;;6.60;2.83;;;;;;;29.38;41.02;99466.22;10456943;28;20044;-70
2023/07/01 12:51:01;;;;;;;4.03;2.42;;;;;;;29.26;39.65;99388.31;10455273;28;20122;-72
2023/07/01 12:56:01;;;;;;;11.40;2.90;;;;;;;29.97;39.70;99461.31;10456094;28;20040;-69
2023/07/01 13:01:02;;;;;;;5.13;3.13;;;;;;;29.38;39.15;99398.66;10437988;28;20059;-71
2023/07/01 13:06:21;;;;;;;6.00;3.00;;;;;;;28.95;39.54;99418.34;10454002;28;20045;-68
2023/07/01 13:11:22;;;;;;;9.05;2.95;;;;;;;29.24;40.13;99486.25;10434633;28;20041;-69
2023/07/01 13:16:28;;;;;;;3.63;2.50;;;;;;;28.79;40.02;99425.31;10452879;28;20041;-69
2023/07/01 13:21:30;;;;;;;4.85;2.50;;;;;;;28.98;39.80;99436.84;10451319;28;20071;-69
2023/07/01 13:26:32;;;;;;;6.22;2.50;;;;;;;29.01;40.43;99493.66;10453604;28;20091;-70
2023/07/01 13:31:33;;;;;;;6.03;2.97;;;;;;;28.58;41.00;99469.53;10454640;28;20076;-71
2023/07/01 13:36:39;;;;;;;4.75;2.75;;;;;;;28.31;42.68;99461.41;10454297;28;20048;-71
2023/07/01 13:41:40;;;;;;;20.38;3.00;;;;;;;28.13;43.21;99480.34;10454504;28;20068;-70
2023/07/01 13:46:41;;;;;;;7.57;2.83;;;;;;;27.96;43.57;99510.19;10453946;28;20083;-67
2023/07/01 13:51:42;;;;;;;12.23;3.50;;;;;;;27.64;45.12;99522.78;10453953;28;20086;-68
2023/07/01 13:56:42;;;;;;;11.45;3.05;;;;;;;27.52;46.23;99523.28;10454620;28;20581;-68
2023/07/01 14:01:55;;;;;;;7.05;2.90;;;;;;;27.41;46.03;99466.47;10454853;28;20406;-68
2023/07/01 14:06:56;;;;;;;7.65;2.78;;;;;;;27.62;45.60;99456.78;10451271;28;20041;-68
2023/07/01 14:11:57;;;;;;;7.47;2.80;;;;;;;28.14;45.80;99503.78;10453765;28;20045;-69
2023/07/01 14:16:58;;;;;;;15.75;3.30;;;;;;;28.37;45.29;99539.38;10461966;28;20044;-68
2023/07/01 14:22:00;;;;;;;15.80;2.83;;;;;;;28.39;44.86;99543.44;10457298;28;20076;-72
2023/07/01 14:27:02;;;;;;;10.52;2.88;;;;;;;28.38;44.51;99541.78;10456657;28;20045;-70
2023/07/01 14:32:05;;;;;;;5.22;2.28;;;;;;;27.67;43.70;99451.25;10456569;28;20052;-70
2023/07/01 14:37:06;;;;;;;8.55;2.65;;;;;;;26.84;44.72;99352.97;10455668;28;20040;-69
2023/07/01 14:42:08;;;;;;;4.22;2.25;;;;;;;27.49;44.57;99553.88;10454762;28;20045;-72
2023/07/01 14:47:09;;;;;;;16.48;2.80;;;;;;;26.83;45.82;99536.66;10435639;28;20043;-71
2023/07/01 14:52:10;;;;;;;12.55;2.78;;;;;;;26.57;46.90;99544.38;10451258;28;20060;-70
2023/07/01 14:57:10;;;;;;;9.27;2.75;;;;;;;26.52;47.69;99554.50;10449611;28;20036;-69
2023/07/01 15:02:11;;;;;;;8.55;2.38;;;;;;;25.92;47.61;99492.34;10453894;28;20098;-70
2023/07/01 15:07:12;;;;;;;6.55;2.40;;;;;;;26.29;47.27;99562.38;10453210;28;20436;-71
2023/07/01 15:12:13;;;;;;;7.78;2.10;;;;;;;26.26;46.84;99533.03;10453403;28;20102;-67
2023/07/01 15:17:13;;;;;;;4.25;1.85;;;;;;;26.79;45.13;99562.84;10452954;28;20079;-67
2023/07/01 15:22:14;;;;;;;4.72;1.80;;;;;;;26.52;44.57;99502.78;10457393;28;20045;-67
2023/07/01 15:27:15;;;;;;;5.40;2.00;;;;;;;26.99;43.37;99537.22;10436638;28;20044;-70
2023/07/01 15:32:16;;;;;;;3.17;1.92;;;;;;;27.19;43.78;99566.09;10457716;28;20049;-70
2023/07/01 15:37:17;;;;;;;23.33;2.30;;;;;;;27.12;44.42;99573.00;10456917;28;20090;-70
2023/07/01 15:42:17;;;;;;;9.68;2.60;;;;;;;26.94;45.37;99574.63;10456419;28;20386;-69
2023/07/01 15:47:18;;;;;;;6.25;2.28;;;;;;;26.39;46.10;99507.81;10439662;28;20102;-71
2023/07/01 15:52:19;;;;;;;4.30;1.80;;;;;;;26.70;46.30;99580.97;10453873;28;20577;-70
2023/07/01 15:57:20;;;;;;;5.07;2.00;;;;;;;26.13;46.83;99520.13;10454847;28;20037;-70
2023/07/01 16:02:21;;;;;;;7.90;1.98;;;;;;;26.23;47.29;99582.59;10455234;28;20520;-69
2023/07/01 16:07:33;;;;;;;9.60;2.92;;;;;;;26.28;48.40;99606.25;10455277;28;20040;-67
2023/07/01 16:12:38;;;;;;;9.13;2.00;;;;;;;25.72;47.42;99547.75;10455533;28;20075;-71
2023/07/01 16:17:40;;;;;;;6.20;1.90;;;;;;;25.93;46.71;99600.88;10455674;28;20037;-68
2023/07/01 16:22:41;;;;;;;6.97;2.15;;;;;;;25.39;46.89;99536.66;10453429;28;20037;-73
2023/07/01 16:27:43;;;;;;;4.40;2.40;;;;;;;25.37;47.07;99568.78;10454925;28;20054;-70
2023/07/01 16:32:46;;;;;;;10.35;6.07;;;;;;;25.47;47.60;99617.63;10446807;28;20099;-70
2023/07/01 16:37:47;;;;;;;5.85;4.45;;;;;;;25.11;47.71;99578.19;10446762;28;20044;-70
2023/07/01 16:42:48;;;;;;;7.18;2.97;;;;;;;25.17;48.39;99615.13;10453537;28;20041;-69
2023/07/01 16:47:49;;;;;;;5.40;1.90;;;;;;;24.93;49.08;99614.97;10455683;28;20047;-69
2023/07/01 16:52:50;;;;;;;4.10;1.77;;;;;;;24.38;49.91;99555.22;10456608;28;20033;-69
2023/07/01 16:57:51;;;;;;;6.15;2.30;;;;;;;24.20;50.09;99567.50;10456321;28;20045;-71
2023/07/01 17:03:12;;;;;;;5.20;2.35;;;;;;;24.47;51.72;99634.19;10437313;28;20067;-70
2023/07/01 17:08:20;;;;;;;5.80;2.30;;;;;;;24.26;51.85;99645.09;10457369;28;20080;-69
2023/07/01 17:13:30;;;;;;;10.63;2.15;;;;;;;24.21;52.05;99677.66;10457010;28;20194;-69
2023/07/01 17:18:31;;;;;;;12.77;2.50;;;;;;;24.07;51.94;99680.13;10455720;28;20037;-69
2023/07/01 17:23:32;;;;;;;3.88;2.70;;;;;;;23.96;52.61;99694.81;10456192;28;20043;-70
2023/07/01 17:28:33;;;;;;;6.22;2.50;;;;;;;23.60;52.37;99653.25;10455514;28;20453;-69
2023/07/01 17:33:34;;;;;;;5.57;2.10;;;;;;;23.92;52.29;99709.97;10455243;28;20061;-69
2023/07/01 17:38:36;;;;;;;4.30;2.10;;;;;;;23.76;52.52;99692.09;10454663;28;20444;-69
2023/07/01 17:43:37;;;;;;;4.15;2.15;;;;;;;23.67;52.71;99692.59;10454943;28;20095;-69
2023/07/01 17:48:38;;;;;;;3.88;2.00;;;;;;;22.95;52.85;99586.00;10454103;28;20041;-69
2023/07/01 17:53:39;;;;;;;10.60;2.63;;;;;;;23.15;53.75;99650.22;10454131;28;20052;-71
2023/07/01 17:58:39;;;;;;;6.07;1.90;;;;;;;23.49;53.77;99725.66;10454334;28;20505;-69
2023/07/01 18:03:40;;;;;;;5.55;2.22;;;;;;;23.32;54.47;99716.94;10453763;28;20136;-69
2023/07/01 18:08:41;;;;;;;4.10;2.40;;;;;;;23.37;54.55;99753.00;10453609;28;20098;-69
2023/07/01 18:13:42;;;;;;;3.63;2.10;;;;;;;23.31;55.05;99753.25;10453869;28;20045;-69
2023/07/01 18:18:42;;;;;;;6.22;2.20;;;;;;;22.77;55.66;99683.97;10453860;28;20048;-69
2023/07/01 18:23:43;;;;;;;5.75;2.25;;;;;;;23.08;56.41;99755.34;10454600;28;20068;-69
2023/07/01 18:28:44;;;;;;;7.68;2.33;;;;;;;22.97;56.34;99745.53;10453993;28;20496;-69
2023/07/01 18:33:45;;;;;;;6.10;2.22;;;;;;;22.98;57.18;99763.44;10453873;28;20056;-69
2023/07/01 18:38:46;;;;;;;9.57;2.40;;;;;;;22.41;57.36;99682.97;10454211;28;20523;-69
2023/07/01 18:43:47;;;;;;;6.88;2.10;;;;;;;22.96;57.74;99785.34;10453084;28;20048;-70
2023/07/01 18:48:47;;;;;;;9.05;2.83;;;;;;;22.89;57.87;99762.28;10453696;28;20090;-69
2023/07/01 18:53:48;;;;;;;6.50;2.55;;;;;;;22.94;58.24;99790.19;10435725;28;20045;-69
2023/07/01 18:58:49;;;;;;;4.25;2.28;;;;;;;22.41;58.50;99691.09;10453995;28;20040;-70
2023/07/01 19:03:50;;;;;;;5.82;2.45;;;;;;;22.64;58.61;99723.13;10461191;28;20036;-69
2023/07/01 19:08:50;;;;;;;6.43;2.40;;;;;;;23.05;59.08;99793.78;10461008;28;20098;-68
2023/07/01 19:13:51;;;;;;;5.28;2.67;;;;;;;23.07;58.94;99785.41;10460833;28;20523;-69
2023/07/01 19:18:52;;;;;;;5.70;2.40;;;;;;;22.97;59.31;99778.88;10459878;28;20045;-69
2023/07/01 19:23:53;;;;;;;13.68;3.00;;;;;;;22.99;59.38;99781.31;10460074;28;20128;-70
2023/07/01 19:28:53;;;;;;;3.95;2.45;;;;;;;22.66;59.96;99745.34;10459407;28;20095;-69
2023/07/01 19:33:54;;;;;;;5.30;2.42;;;;;;;22.53;60.17;99743.94;10459477;28;20047;-70
2023/07/01 19:38:55;;;;;;;4.95;2.42;;;;;;;22.25;60.58;99714.50;10459769;28;20051;-68
2023/07/01 19:43:56;;;;;;;5.22;2.50;;;;;;;22.38;60.87;99761.97;10460301;28;20150;-69
2023/07/01 19:48:56;;;;;;;6.70;2.33;;;;;;;22.61;61.58;99826.53;10459452;28;20485;-69
2023/07/01 19:53:57;;;;;;;6.43;2.50;;;;;;;22.46;62.17;99821.81;10456492;28;20051;-68
2023/07/01 19:58:58;;;;;;;6.47;2.65;;;;;;;21.60;62.61;99705.59;10458645;28;20048;-69
2023/07/01 20:03:59;;;;;;;6.32;2.50;;;;;;;22.29;62.85;99838.22;10459660;28;20171;-68
2023/07/01 20:09:00;;;;;;;5.53;2.75;;;;;;;22.02;63.38;99808.44;10458540;28;20048;-70
2023/07/01 20:14:01;;;;;;;4.57;2.70;;;;;;;22.08;63.71;99833.66;10457127;28;20044;-69
2023/07/01 20:19:02;;;;;;;7.85;2.72;;;;;;;21.57;64.13;99763.69;10439765;28;20501;-69
2023/07/01 20:24:02;;;;;;;4.25;2.33;;;;;;;21.91;64.27;99839.16;10458571;28;20033;-70
2023/07/01 20:29:03;;;;;;;3.65;2.08;;;;;;;21.42;64.70;99772.44;10457514;28;20048;-70
2023/07/01 20:34:04;;;;;;;20.77;2.72;;;;;;;21.82;65.25;99856.91;10456964;28;20050;-70
2023/07/01 20:39:05;;;;;;;8.90;2.78;;;;;;;21.71;66.05;99857.88;10456602;28;20419;-70
2023/07/01 20:44:06;;;;;;;10.65;3.00;;;;;;;21.26;67.74;99813.00;10456944;28;20044;-71
2023/07/01 20:49:07;;;;;;;5.60;3.00;;;;;;;21.34;68.69;99848.50;10456543;28;20041;-70
2023/07/01 20:54:08;;;;;;;7.15;2.45;;;;;;;21.31;69.29;99880.59;10456038;28;20585;-70
2023/07/01 20:59:11;;;;;;;6.30;2.67;;;;;;;21.17;70.21;99869.31;10456650;28;20721;-70
2023/07/01 21:04:12;;;;;;;7.07;2.63;;;;;;;20.94;69.92;99840.69;10456509;28;20072;-70
2023/07/01 21:09:14;;;;;;;4.90;2.60;;;;;;;20.22;69.50;99741.59;10456765;28;20464;-70
2023/07/01 21:14:16;;;;;;;6.35;2.72;;;;;;;20.89;70.23;99854.91;10455452;28;20079;-70
2023/07/01 21:19:17;;;;;;;3.75;2.50;;;;;;;20.90;70.23;99874.63;10455817;28;20033;-70
2023/07/01 21:24:18;;;;;;;3.67;2.35;;;;;;;20.79;70.55;99870.13;10455869;28;20477;-70
2023/07/01 21:29:19;;;;;;;5.88;2.67;;;;;;;20.74;70.59;99870.88;10437051;28;20063;-70
2023/07/01 21:34:21;;;;;;;4.43;3.08;;;;;;;20.70;71.55;99875.97;10454769;28;20037;-69
2023/07/01 21:39:23;;;;;;;4.25;2.72;;;;;;;20.72;71.81;99891.88;10455163;28;20118;-69
2023/07/01 21:44:24;;;;;;;9.63;3.10;;;;;;;20.72;72.05;99887.31;10455641;28;20083;-69
2023/07/01 21:49:24;;;;;;;6.93;2.63;;;;;;;20.33;72.35;99813.53;10454766;28;20087;-69
2023/07/01 21:54:25;;;;;;;6.45;3.20;;;;;;;20.67;73.09;99868.34;10454463;28;20072;-69
2023/07/01 21:59:27;;;;;;;25.95;3.83;;;;;;;20.16;73.98;99800.06;10454015;28;20037;-69
2023/07/01 22:04:28;;;;;;;6.55;3.28;;;;;;;20.49;73.78;99865.84;10453926;28;20041;-70
2023/07/01 22:09:29;;;;;;;3.85;2.92;;;;;;;20.15;74.26;99819.97;10454612;28;20067;-69
2023/07/01 22:14:30;;;;;;;8.35;3.47;;;;;;;20.40;74.47;99868.16;10454412;28;20131;-69
2023/07/01 22:19:31;;;;;;;5.40;3.28;;;;;;;20.05;74.82;99827.91;10452844;28;20127;-69
2023/07/01 22:24:31;;;;;;;5.13;3.40;;;;;;;19.67;75.56;99788.94;10436199;28;20075;-69
2023/07/01 22:29:32;;;;;;;5.00;2.97;;;;;;;20.15;76.11;99891.97;10453781;28;20118;-69
2023/07/01 22:34:33;;;;;;;5.80;3.30;;;;;;;20.05;76.82;99892.59;10455647;28;20041;-69
2023/07/01 22:39:34;;;;;;;6.90;3.03;;;;;;;19.48;77.36;99830.56;10443819;28;20049;-69
2023/07/01 22:44:34;;;;;;;11.43;3.33;;;;;;;19.71;78.38;99889.78;10461323;28;20041;-69
2023/07/01 22:49:35;;;;;;;7.65;3.60;;;;;;;19.12;79.03;99836.03;10461024;28;20493;-69
2023/07/01 22:54:37;;;;;;;5.97;3.45;;;;;;;19.43;80.64;99906.69;10461949;28;20041;-69
2023/07/01 22:59:38;;;;;;;6.15;3.45;;;;;;;19.31;81.31;99916.66;10462354;28;20143;-69
2023/07/01 23:04:39;;;;;;;5.15;3.63;;;;;;;19.23;82.08;99912.44;10461122;28;20540;-69
2023/07/01 23:09:40;;;;;;;9.20;3.83;;;;;;;19.26;82.58;99914.66;10460605;28;20139;-69
2023/07/01 23:14:40;;;;;;;7.90;4.50;;;;;;;19.29;82.59;99914.19;10460695;28;20040;-69
2023/07/01 23:19:41;;;;;;;5.30;3.80;;;;;;;19.21;82.51;99911.06;10460149;28;20041;-68